Skip Navigation

Christman Field Latest Observations

Switch to metric unitsOther observation timesWeekly graphs

Date Time
MST
Temp
°F
RH
%
DewPt
°F
Wind
mph
Dir
°
Gust
mph
Dir
°
Press
in Hg
Solar
W/m^2
Prec
in
2020-11-27 22:10 26.9 76.0 20.3 2.7 274 4.4 268 24.644 0.1 0.00
2020-11-27 22:05 26.9 74.6 19.9 2.2 291 2.7 293 24.662 0.1 0.00
2020-11-27 22:00 27.6 72.4 19.9 2.5 332 3.1 326 24.667 0.1 0.00
2020-11-27 21:55 27.7 72.8 20.1 3.3 343 3.8 353 24.670 0.0 0.00
2020-11-27 21:50 27.7 74.2 20.5 3.0 353 4.0 353 24.670 0.0 0.00
2020-11-27 21:45 28.1 73.9 20.9 3.4 338 5.1 5 24.670 0.0 0.00
2020-11-27 21:40 28.8 72.3 21.0 1.3 330 1.8 337 24.671 0.0 0.00
2020-11-27 21:35 28.4 74.2 21.2 1.6 335 2.4 322 24.671 0.0 0.00
2020-11-27 21:30 28.1 79.0 22.5 1.6 261 2.6 261 24.671 0.1 0.00
2020-11-27 21:25 28.0 80.2 22.7 3.3 261 4.7 261 24.672 0.1 0.00
2020-11-27 21:20 27.9 80.2 22.6 3.8 261 4.9 259 24.674 0.1 0.00
2020-11-27 21:15 28.1 80.0 22.7 4.1 259 4.6 259 24.675 0.0 0.00
2020-11-27 21:10 28.3 79.2 22.7 4.6 251 5.4 246 24.675 0.0 0.00
2020-11-27 21:05 28.3 78.2 22.4 4.2 251 4.9 248 24.674 0.1 0.00
2020-11-27 21:00 28.1 76.3 21.6 4.9 258 5.6 256 24.674 0.1 0.00
2020-11-27 20:55 27.8 79.5 22.3 5.0 255 5.4 255 24.673 0.0 0.00
2020-11-27 20:50 26.9 82.5 22.3 4.8 247 5.3 248 24.674 0.0 0.00
2020-11-27 20:45 26.8 81.4 21.9 3.3 244 4.6 250 24.673 0.0 0.00
2020-11-27 20:40 27.2 79.6 21.7 1.8 241 2.9 241 24.673 0.0 0.00
2020-11-27 20:35 28.4 73.7 21.1 1.7 312 2.4 323 24.673 0.0 0.00
2020-11-27 20:30 28.0 75.8 21.3 1.1 349 2.4 349 24.674 0.0 0.00
2020-11-27 20:25 27.9 74.8 21.0 0.6 349 1.8 349 24.673 0.0 0.00
2020-11-27 20:20 28.1 73.8 20.8 1.0 359 2.9 359 24.671 0.0 0.00
2020-11-27 20:15 28.2 74.4 21.1 0.9 347 2.2 340 24.670 0.0 0.00
2020-11-27 20:10 28.5 75.6 21.7 0.5 358 1.9 358 24.665 0.0 0.00
2020-11-27 20:05 28.7 74.2 21.6 0.0 271 0.6 271 24.662 0.0 0.00
2020-11-27 20:00 28.8 77.3 22.6 0.0 271 0.0 271 24.660 0.0 0.00
2020-11-27 19:55 29.0 75.7 22.3 1.5 271 2.1 271 24.658 0.0 0.00
2020-11-27 19:50 29.4 76.0 22.7 1.8 271 3.1 282 24.655 0.0 0.00
2020-11-27 19:45 29.6 75.4 22.8 0.0 274 0.6 273 24.653 0.0 0.00